createdAt,value
2022-11-14T00:00:23.214Z,100742.16
2022-11-14T00:04:47.086Z,100743.97
2022-11-14T00:09:08.554Z,100739.78
2022-11-14T00:13:30.275Z,100739.59
2022-11-14T00:17:53.351Z,100736.31
2022-11-14T00:22:15.367Z,100734.59
2022-11-14T00:26:36.785Z,100742.53
2022-11-14T00:30:58.037Z,100740.88
2022-11-14T00:35:21.112Z,100737.41
2022-11-14T00:39:42.816Z,100738.34
2022-11-14T00:44:04.459Z,100740.88
2022-11-14T00:48:25.975Z,100725.19
2022-11-14T00:52:49.190Z,100726.13
2022-11-14T00:57:10.767Z,100707.94
2022-11-14T01:01:32.595Z,100705.41
2022-11-14T01:05:53.919Z,100708.03
2022-11-14T01:10:17.468Z,100703.75
2022-11-14T01:14:41.128Z,100706.44
2022-11-14T01:19:03.222Z,100696.97
2022-11-14T01:23:25.005Z,100697.91
2022-11-14T01:27:48.013Z,100685.75
2022-11-14T01:32:09.807Z,100671.00
2022-11-14T01:36:31.188Z,100673.59
2022-11-14T01:40:52.926Z,100669.25
2022-11-14T01:45:57.096Z,100661.44
2022-11-14T01:50:20.284Z,100659.59
2022-11-14T01:54:46.084Z,100660.53
2022-11-14T01:59:12.528Z,100657.03
2022-11-14T02:03:37.101Z,100663.13
2022-11-14T02:07:59.857Z,100674.53
2022-11-14T02:12:21.422Z,100670.47
2022-11-14T02:16:55.711Z,100661.97
2022-11-14T02:21:27.046Z,100667.41
2022-11-14T02:25:48.823Z,100665.72
2022-11-14T02:30:13.864Z,100677.94
2022-11-14T02:34:36.027Z,100669.38
2022-11-14T02:38:59.059Z,100671.13
2022-11-14T02:43:21.117Z,100675.50
2022-11-14T02:47:42.423Z,100677.28
2022-11-14T02:52:04.358Z,100664.19
2022-11-14T02:56:27.812Z,100666.00
2022-11-14T03:01:14.093Z,100660.78
2022-11-14T03:05:30.893Z,100655.44
2022-11-14T03:09:52.746Z,100649.22
2022-11-14T03:14:15.744Z,100650.78
2022-11-14T03:18:38.088Z,100643.59
2022-11-14T03:23:00.408Z,100648.66
2022-11-14T03:27:21.962Z,100649.31
2022-11-14T03:31:44.775Z,100654.53
2022-11-14T03:36:07.780Z,100652.19
2022-11-14T03:40:29.455Z,100652.38
2022-11-14T03:44:50.891Z,100657.75
2022-11-14T03:49:13.710Z,100653.50
2022-11-14T03:53:35.587Z,100662.25
2022-11-14T03:57:57.282Z,100646.53
2022-11-14T04:02:18.935Z,100643.00
2022-11-14T04:06:42.349Z,100637.88
2022-11-14T04:11:03.901Z,100627.41
2022-11-14T04:15:25.486Z,100625.72
2022-11-14T04:19:47.123Z,100618.00
2022-11-14T04:24:11.310Z,100627.63
2022-11-14T04:28:33.080Z,100627.69
2022-11-14T04:32:55.078Z,100626.91
2022-11-14T04:37:16.796Z,100620.81
2022-11-14T04:41:39.880Z,100614.88
2022-11-14T04:46:01.417Z,100605.41
2022-11-14T04:50:23.087Z,100605.41
2022-11-14T04:54:44.625Z,100600.09
2022-11-14T04:59:07.737Z,100607.97
2022-11-14T05:03:29.054Z,100594.88
2022-11-14T05:07:50.362Z,100600.88
2022-11-14T05:12:12.139Z,100593.00
2022-11-14T05:16:35.360Z,100590.34
2022-11-14T05:20:59.584Z,100586.00
2022-11-14T05:25:20.947Z,100575.63
2022-11-14T05:29:42.477Z,100564.47
2022-11-14T05:34:05.482Z,100565.31
2022-11-14T05:38:26.950Z,100574.03
2022-11-14T05:42:48.373Z,100565.25
2022-11-14T05:47:10.079Z,100582.66
2022-11-14T05:51:33.169Z,100582.81
2022-11-14T05:55:55.648Z,100586.34
2022-11-14T06:00:18.129Z,100587.34
2022-11-14T06:04:39.580Z,100579.56
2022-11-14T06:09:03.107Z,100585.78
2022-11-14T06:13:24.945Z,100599.03
2022-11-14T06:17:46.843Z,100596.53
2022-11-14T06:22:08.558Z,100601.75
2022-11-14T06:26:33.019Z,100611.41
2022-11-14T06:30:58.904Z,100606.22
2022-11-14T06:35:20.652Z,100609.66
2022-11-14T06:39:42.255Z,100606.16
2022-11-14T06:44:05.689Z,100602.78
2022-11-14T06:48:27.871Z,100608.03
2022-11-14T06:52:50.006Z,100605.41
2022-11-14T06:57:11.387Z,100618.59
2022-11-14T07:01:34.463Z,100609.91
2022-11-14T07:05:59.092Z,100612.53
2022-11-14T07:10:20.560Z,100613.53
2022-11-14T07:14:42.799Z,100603.13
2022-11-14T07:19:09.190Z,100606.72
2022-11-14T07:23:31.999Z,100619.03
2022-11-14T07:27:53.753Z,100613.03
2022-11-14T07:32:15.526Z,100603.56
2022-11-14T07:36:38.540Z,100606.28
2022-11-14T07:41:01.341Z,100602.88
2022-11-14T07:45:22.956Z,100611.72
2022-11-14T07:49:44.439Z,100607.28
2022-11-14T07:54:07.661Z,100605.47
2022-11-14T07:58:29.270Z,100605.44
2022-11-14T08:02:50.845Z,100612.44
2022-11-14T08:07:12.690Z,100608.19
2022-11-14T08:11:50.901Z,100599.53
2022-11-14T08:16:14.114Z,100581.22
2022-11-14T08:20:35.705Z,100583.03
2022-11-14T08:24:57.317Z,100585.88
2022-11-14T08:29:20.345Z,100578.16
2022-11-14T08:33:41.667Z,100576.47
2022-11-14T08:38:03.338Z,100570.50
2022-11-14T08:42:24.863Z,100561.75
2022-11-14T08:46:48.130Z,100555.69
2022-11-14T08:51:09.514Z,100559.41
2022-11-14T08:55:31.160Z,100556.16
2022-11-14T08:59:52.718Z,100549.38
2022-11-14T09:04:16.474Z,100558.25
2022-11-14T09:08:38.762Z,100553.16
2022-11-14T09:13:02.095Z,100547.94
2022-11-14T09:17:23.341Z,100543.66
2022-11-14T09:21:46.332Z,100542.06
2022-11-14T09:26:08.784Z,100529.91
2022-11-14T09:30:30.451Z,100530.03
2022-11-14T09:34:51.854Z,100527.56
2022-11-14T09:39:14.841Z,100514.47
2022-11-14T09:44:14.164Z,100511.19
2022-11-14T09:48:38.858Z,100501.66
2022-11-14T09:53:06.109Z,100497.41
2022-11-14T09:57:30.328Z,100489.59
2022-11-14T10:02:03.404Z,100475.66
2022-11-14T10:06:32.130Z,100470.56
2022-11-14T10:10:55.794Z,100469.75
2022-11-14T10:15:26.545Z,100463.56
2022-11-14T10:20:01.758Z,100446.03
2022-11-14T10:24:39.651Z,100440.84
2022-11-14T10:29:28.904Z,100435.66
2022-11-14T10:34:00.765Z,100432.34
2022-11-14T10:38:28.337Z,100437.66
2022-11-14T10:42:55.771Z,100439.41
2022-11-14T10:47:20.882Z,100428.97
2022-11-14T10:51:47.581Z,100430.63
2022-11-14T10:56:12.681Z,100414.09
2022-11-14T11:00:34.336Z,100409.78
2022-11-14T11:05:12.935Z,100415.09
2022-11-14T11:10:03.779Z,100412.41
2022-11-14T11:14:25.487Z,100407.97
2022-11-14T11:18:50.635Z,100413.28
2022-11-14T11:23:19.966Z,100401.94
2022-11-14T11:27:43.045Z,100403.63
2022-11-14T11:32:04.576Z,100397.50
2022-11-14T11:36:27.791Z,100385.28
2022-11-14T11:40:52.468Z,100380.88
2022-11-14T11:45:18.494Z,100373.16
2022-11-14T11:49:51.740Z,100366.19
2022-11-14T11:54:19.808Z,100355.66
2022-11-14T11:58:46.777Z,100360.13
2022-11-14T12:03:20.274Z,100352.38
2022-11-14T12:07:47.671Z,100341.09
2022-11-14T12:12:18.482Z,100332.50
2022-11-14T12:17:04.681Z,100328.25
2022-11-14T12:21:45.723Z,100330.19
2022-11-14T12:26:21.270Z,100327.69
2022-11-14T12:30:49.360Z,100324.28
2022-11-14T12:35:19.750Z,100325.28
2022-11-14T12:39:43.277Z,100323.66
2022-11-14T12:44:19.864Z,100325.53
2022-11-14T12:48:43.277Z,100323.84
2022-11-14T12:53:04.862Z,100323.09
2022-11-14T12:57:51.556Z,100327.56
2022-11-14T13:02:28.490Z,100324.06
2022-11-14T13:07:01.617Z,100324.19
2022-11-14T13:11:55.498Z,100322.44
2022-11-14T13:16:45.267Z,100312.78
2022-11-14T13:21:34.726Z,100313.63
2022-11-14T13:26:29.012Z,100322.31
2022-11-14T13:31:20.391Z,100326.66
2022-11-14T13:36:05.738Z,100316.94
2022-11-14T13:40:35.853Z,100319.44
2022-11-14T13:45:41.822Z,100319.31
2022-11-14T13:50:06.603Z,100318.34
2022-11-14T13:54:29.838Z,100311.25
2022-11-14T13:59:09.051Z,100314.69
2022-11-14T14:03:55.477Z,100302.34
2022-11-14T14:08:29.613Z,100302.28
2022-11-14T14:13:05.895Z,100311.03
2022-11-14T14:17:35.054Z,100308.34
2022-11-14T14:22:04.017Z,100313.56
2022-11-14T14:26:34.723Z,100317.78
2022-11-14T14:31:04.515Z,100302.75
2022-11-14T14:35:27.791Z,100321.03
2022-11-14T14:40:00.093Z,100312.06
2022-11-14T14:44:26.586Z,100310.28
2022-11-14T14:48:49.647Z,100307.59
2022-11-14T14:53:21.388Z,100304.00
2022-11-14T14:57:43.222Z,100312.69
2022-11-14T15:02:04.888Z,100310.84
2022-11-14T15:06:31.344Z,100316.06
2022-11-14T15:10:59.540Z,100306.38
2022-11-14T15:15:25.720Z,100302.81
2022-11-14T15:19:48.127Z,100306.31
2022-11-14T15:24:17.754Z,100310.78
2022-11-14T15:28:39.315Z,100302.06
2022-11-14T15:33:02.380Z,100294.16
2022-11-14T15:37:25.216Z,100306.50
2022-11-14T15:41:48.351Z,100304.78
2022-11-14T15:46:29.172Z,100288.94
2022-11-14T15:50:51.670Z,100293.28
2022-11-14T15:55:16.469Z,100295.03
2022-11-14T15:59:39.807Z,100290.56
2022-11-14T16:04:01.849Z,100286.88
2022-11-14T16:08:23.246Z,100286.75
2022-11-14T16:12:50.944Z,100292.81
2022-11-14T16:17:17.018Z,100292.00
2022-11-14T16:21:38.769Z,100292.88
2022-11-14T16:26:00.042Z,100291.19
2022-11-14T16:30:23.428Z,100293.91
2022-11-14T16:34:46.427Z,100297.47
2022-11-14T16:39:11.442Z,100296.56
2022-11-14T16:43:33.581Z,100293.94
2022-11-14T16:47:55.274Z,100293.94
2022-11-14T16:52:19.081Z,100290.53
2022-11-14T16:56:41.194Z,100287.09
2022-11-14T17:01:02.841Z,100280.09
2022-11-14T17:05:24.767Z,100274.91
2022-11-14T17:09:48.236Z,100273.22
2022-11-14T17:14:09.769Z,100274.94
2022-11-14T17:18:35.650Z,100261.75
2022-11-14T17:23:00.330Z,100269.66
2022-11-14T17:27:23.403Z,100270.53
2022-11-14T17:31:47.197Z,100262.59
2022-11-14T17:36:11.605Z,100262.53
2022-11-14T17:40:33.353Z,100257.19
2022-11-14T17:44:58.600Z,100266.84
2022-11-14T17:49:20.454Z,100263.31
2022-11-14T17:53:45.267Z,100261.56
2022-11-14T17:58:07.522Z,100262.41
2022-11-14T18:02:30.512Z,100247.53
2022-11-14T18:06:52.213Z,100230.75
2022-11-14T18:11:15.324Z,100219.28
2022-11-14T18:15:38.999Z,100224.50
2022-11-14T18:20:01.844Z,100232.25
2022-11-14T18:24:23.953Z,100242.69
2022-11-14T18:28:45.995Z,100239.22
2022-11-14T18:33:07.466Z,100237.44
2022-11-14T18:37:32.607Z,100240.88
2022-11-14T18:41:54.598Z,100236.44
2022-11-14T18:46:18.011Z,100236.38
2022-11-14T18:50:39.955Z,100238.06
2022-11-14T18:55:14.992Z,100237.13
2022-11-14T18:59:36.527Z,100229.16
2022-11-14T19:04:00.036Z,100228.22
2022-11-14T19:08:21.778Z,100229.94
2022-11-14T19:12:47.812Z,100233.34
2022-11-14T19:17:09.528Z,100229.75
2022-11-14T19:21:31.669Z,100239.25
2022-11-14T19:25:54.057Z,100234.78
2022-11-14T19:30:18.175Z,100227.69
2022-11-14T19:34:39.516Z,100217.03
2022-11-14T19:39:02.749Z,100211.69
2022-11-14T19:43:26.106Z,100213.34
2022-11-14T19:47:48.813Z,100200.97
2022-11-14T19:52:10.129Z,100195.56
2022-11-14T19:56:31.844Z,100199.75
2022-11-14T20:00:53.944Z,100199.66
2022-11-14T20:05:17.098Z,100204.06
2022-11-14T20:09:38.854Z,100197.94
2022-11-14T20:14:02.276Z,100190.94
2022-11-14T20:18:24.445Z,100197.06
2022-11-14T20:22:47.454Z,100197.91
2022-11-14T20:27:09.645Z,100197.09
2022-11-14T20:31:32.231Z,100190.94
2022-11-14T20:35:53.632Z,100187.38
2022-11-14T20:40:17.360Z,100188.25
2022-11-14T20:44:39.374Z,100183.84
2022-11-14T20:49:01.213Z,100186.41
2022-11-14T20:53:23.548Z,100182.94
2022-11-14T20:57:46.628Z,100174.25
2022-11-14T21:02:08.683Z,100166.41
2022-11-14T21:06:30.239Z,100162.94
2022-11-14T21:10:59.369Z,100156.00
2022-11-14T21:15:22.489Z,100156.03
2022-11-14T21:19:43.880Z,100163.03
2022-11-14T21:24:06.654Z,100150.78
2022-11-14T21:28:29.916Z,100150.81
2022-11-14T21:32:55.897Z,100144.72
2022-11-14T21:37:17.252Z,100137.84
2022-11-14T21:41:39.129Z,100139.59
2022-11-14T21:46:02.611Z,100141.38
2022-11-14T21:50:25.356Z,100143.09
2022-11-14T21:54:46.754Z,100139.50
2022-11-14T21:59:14.412Z,100143.88
2022-11-14T22:03:54.292Z,100146.56
2022-11-14T22:08:17.962Z,100135.97
2022-11-14T22:12:39.654Z,100146.44
2022-11-14T22:17:01.174Z,100131.50
2022-11-14T22:21:23.406Z,100138.53
2022-11-14T22:25:53.963Z,100128.00
2022-11-14T22:30:15.399Z,100129.66
2022-11-14T22:34:36.844Z,100121.69
2022-11-14T22:38:58.868Z,100120.84
2022-11-14T22:43:22.436Z,100118.25
2022-11-14T22:47:44.063Z,100114.84
2022-11-14T22:52:05.680Z,100108.75
2022-11-14T22:56:29.288Z,100098.31
2022-11-14T23:00:52.800Z,100092.19
2022-11-14T23:05:14.206Z,100093.97
2022-11-14T23:09:35.816Z,100089.63
2022-11-14T23:13:59.305Z,100102.72
2022-11-14T23:18:24.058Z,100093.94
2022-11-14T23:22:46.001Z,100099.19
2022-11-14T23:27:07.807Z,100092.09
2022-11-14T23:31:29.214Z,100077.25
2022-11-14T23:35:52.234Z,100080.75
2022-11-14T23:40:13.828Z,100078.16
2022-11-14T23:44:35.422Z,100079.94
2022-11-14T23:48:57.057Z,100079.13
2022-11-14T23:53:20.683Z,100073.88
2022-11-14T23:57:42.537Z,100073.00
